createdAt,value
2018-12-07T00:00:08.680Z,99182.21
2018-12-07T00:02:36.016Z,99189.09
2018-12-07T00:05:03.263Z,99181.42
2018-12-07T00:10:09.866Z,99178.24
2018-12-07T00:12:37.015Z,99179.54
2018-12-07T00:15:05.733Z,99180.09
2018-12-07T00:17:32.903Z,99182.99
2018-12-07T00:20:00.224Z,99180.06
2018-12-07T00:22:27.377Z,99173.72
2018-12-07T00:24:54.569Z,99172.67
2018-12-07T00:27:21.708Z,99165.00
2018-12-07T00:29:48.805Z,99166.05
2018-12-07T00:32:15.960Z,99162.34
2018-12-07T00:34:43.094Z,99155.17
2018-12-07T00:37:11.770Z,99151.48
2018-12-07T00:39:39.787Z,99153.84
2018-12-07T00:42:06.936Z,99146.17
2018-12-07T00:44:34.095Z,99153.84
2018-12-07T00:47:01.214Z,99141.64
2018-12-07T00:49:28.353Z,99149.59
2018-12-07T00:51:55.548Z,99139.52
2018-12-07T00:54:22.812Z,99137.11
2018-12-07T00:56:49.932Z,99145.86
2018-12-07T00:59:17.212Z,99144.30
2018-12-07T01:01:44.415Z,99138.72
2018-12-07T01:04:12.025Z,99130.52
2018-12-07T01:06:39.182Z,99138.19
2018-12-07T01:09:08.191Z,99129.68
2018-12-07T01:11:36.328Z,99130.52
2018-12-07T01:14:03.582Z,99131.32
2018-12-07T01:16:30.726Z,99125.78
2018-12-07T01:18:57.842Z,99126.83
2018-12-07T01:21:24.949Z,99113.05
2018-12-07T01:23:52.982Z,99116.47
2018-12-07T01:26:20.077Z,99106.67
2018-12-07T01:28:47.340Z,99106.71
2018-12-07T01:31:14.627Z,99100.09
2018-12-07T01:33:41.885Z,99099.57
2018-12-07T01:36:09.145Z,99095.56
2018-12-07T01:38:36.382Z,99094.52
2018-12-07T01:41:03.552Z,99079.94
2018-12-07T01:43:30.720Z,99088.94
2018-12-07T01:45:57.836Z,99098.21
2018-12-07T01:48:27.301Z,99091.34
2018-12-07T01:50:54.493Z,99095.04
2018-12-07T01:53:21.642Z,99083.64
2018-12-07T01:55:48.750Z,99082.88
2018-12-07T01:58:15.985Z,99077.85
2018-12-07T02:00:43.374Z,99072.27
2018-12-07T02:03:10.567Z,99065.66
2018-12-07T02:05:37.769Z,99068.55
2018-12-07T02:08:04.933Z,99060.08
2018-12-07T02:10:32.142Z,99063.80
2018-12-07T02:12:59.356Z,99065.94
2018-12-07T02:15:26.539Z,99062.73
2018-12-07T02:17:53.907Z,99066.95
2018-12-07T02:20:21.050Z,99064.34
2018-12-07T02:22:48.197Z,99066.44
2018-12-07T02:25:15.316Z,99052.42
2018-12-07T02:27:48.109Z,99060.62
2018-12-07T02:30:16.694Z,99050.02
2018-12-07T02:32:43.804Z,99039.14
2018-12-07T02:35:11.327Z,99041.55
2018-12-07T02:37:38.505Z,99049.49
2018-12-07T02:40:05.748Z,99040.22
2018-12-07T02:42:32.898Z,99038.38
2018-12-07T02:45:00.147Z,99030.98
2018-12-07T02:47:27.465Z,99032.55
2018-12-07T02:49:54.705Z,99041.81
2018-12-07T02:52:25.457Z,99041.27
2018-12-07T02:54:52.588Z,99035.73
2018-12-07T02:57:19.738Z,99038.38
2018-12-07T02:59:52.351Z,99030.95
2018-12-07T03:02:19.512Z,99034.92
2018-12-07T03:04:51.108Z,99031.19
2018-12-07T03:07:18.280Z,99023.53
2018-12-07T03:09:45.589Z,99018.75
2018-12-07T03:12:12.677Z,99019.03
2018-12-07T03:14:42.693Z,99011.09
2018-12-07T03:17:09.869Z,99011.09
2018-12-07T03:19:37.771Z,99007.66
2018-12-07T03:22:05.661Z,98977.00
2018-12-07T03:24:33.781Z,99003.67
2018-12-07T03:27:00.886Z,99001.83
2018-12-07T03:29:28.204Z,99001.30
2018-12-07T03:31:55.409Z,99000.50
2018-12-07T03:34:23.130Z,98998.12
2018-12-07T03:36:50.536Z,99000.02
2018-12-07T03:39:17.778Z,98992.08
2018-12-07T03:41:44.980Z,98995.81
2018-12-07T03:44:12.165Z,98989.95
2018-12-07T03:46:39.342Z,98992.08
2018-12-07T03:49:06.541Z,98988.11
2018-12-07T03:51:33.703Z,98984.94
2018-12-07T03:54:00.834Z,98986.79
2018-12-07T03:56:27.965Z,98988.12
2018-12-07T03:58:56.848Z,98991.81
2018-12-07T04:01:23.995Z,98991.56
2018-12-07T04:03:51.340Z,98988.39
2018-12-07T04:06:18.664Z,98988.67
2018-12-07T04:08:45.951Z,98990.77
2018-12-07T04:16:03.929Z,98979.97
2018-12-07T04:18:31.067Z,98978.37
2018-12-07T04:20:58.305Z,98978.13
2018-12-07T04:23:25.553Z,98977.05
2018-12-07T04:25:52.804Z,98966.77
2018-12-07T04:28:19.983Z,98980.52
2018-12-07T04:30:47.154Z,98977.88
2018-12-07T04:33:14.858Z,98978.67
2018-12-07T04:35:42.105Z,98972.34
2018-12-07T04:38:09.222Z,98980.80
2018-12-07T04:40:37.076Z,98975.78
2018-12-07T04:43:04.236Z,98973.91
2018-12-07T04:45:31.426Z,98982.12
2018-12-07T04:47:58.697Z,98973.66
2018-12-07T04:50:25.938Z,98963.87
2018-12-07T04:52:53.080Z,98964.16
2018-12-07T04:55:20.231Z,98959.66
2018-12-07T04:57:47.533Z,98959.91
2018-12-07T05:00:14.727Z,98955.41
2018-12-07T05:02:41.942Z,98948.28
2018-12-07T05:05:11.202Z,98946.12
2018-12-07T05:07:38.540Z,98938.98
2018-12-07T05:10:06.266Z,98936.34
2018-12-07T05:12:33.605Z,98925.76
2018-12-07T05:15:00.836Z,98923.36
2018-12-07T05:17:28.088Z,98913.33
2018-12-07T05:19:55.239Z,98914.38
2018-12-07T05:22:22.493Z,98901.70
2018-12-07T05:24:49.768Z,98892.69
2018-12-07T05:27:16.899Z,98906.44
2018-12-07T05:29:44.466Z,98912.29
2018-12-07T05:32:12.422Z,98913.33
2018-12-07T05:34:39.805Z,98907.52
2018-12-07T05:37:06.961Z,98914.38
2018-12-07T05:39:34.798Z,98917.02
2018-12-07T05:42:02.710Z,98905.39
2018-12-07T05:44:29.846Z,98920.75
2018-12-07T05:46:57.341Z,98906.72
2018-12-07T05:49:24.537Z,98910.97
2018-12-07T05:51:51.706Z,98908.05
2018-12-07T05:54:18.854Z,98905.95
2018-12-07T05:56:46.052Z,98893.53
2018-12-07T05:59:14.220Z,98889.00
2018-12-07T06:01:42.045Z,98897.22
2018-12-07T06:04:09.226Z,98883.71
2018-12-07T06:06:36.597Z,98887.43
2018-12-07T06:09:06.076Z,98885.27
2018-12-07T06:11:33.305Z,98890.84
2018-12-07T06:14:00.504Z,98882.11
2018-12-07T06:16:28.193Z,98881.83
2018-12-07T06:18:55.453Z,98877.57
2018-12-07T06:21:22.681Z,98884.73
2018-12-07T06:23:50.014Z,98767.52
2018-12-07T06:26:17.798Z,98880.02
2018-12-07T06:28:45.084Z,98881.59
2018-12-07T06:31:12.302Z,98871.80
2018-12-07T06:33:39.476Z,98862.02
2018-12-07T06:36:06.633Z,98869.72
2018-12-07T06:38:33.921Z,98869.72
2018-12-07T06:41:01.116Z,98861.22
2018-12-07T06:43:28.492Z,98842.46
2018-12-07T06:45:55.734Z,98856.21
2018-12-07T06:48:23.051Z,98840.62
2018-12-07T06:50:53.346Z,98853.29
2018-12-07T06:53:20.654Z,98839.30
2018-12-07T06:55:51.997Z,98840.87
2018-12-07T06:58:19.666Z,98829.24
2018-12-07T07:00:47.132Z,98830.80
2018-12-07T07:03:14.647Z,98834.77
2018-12-07T07:05:42.345Z,98819.98
2018-12-07T07:08:09.612Z,98825.56
2018-12-07T07:10:36.846Z,98823.67
2018-12-07T07:13:04.715Z,98814.17
2018-12-07T07:15:31.961Z,98812.34
2018-12-07T07:17:59.153Z,98810.22
2018-12-07T07:20:26.501Z,98816.30
2018-12-07T07:22:53.853Z,98809.41
2018-12-07T07:25:20.989Z,98800.43
2018-12-07T07:27:48.398Z,98800.14
2018-12-07T07:30:15.628Z,98809.63
2018-12-07T07:32:42.917Z,98800.95
2018-12-07T07:35:10.253Z,98804.12
2018-12-07T07:37:37.432Z,98800.67
2018-12-07T07:40:04.635Z,98790.66
2018-12-07T07:42:32.525Z,98789.34
2018-12-07T07:44:59.961Z,98784.84
2018-12-07T07:47:27.172Z,98778.47
2018-12-07T07:49:54.339Z,98775.82
2018-12-07T07:52:21.504Z,98491.34
2018-12-07T07:54:49.868Z,98783.23
2018-12-07T07:57:18.296Z,98773.70
2018-12-07T07:59:46.615Z,98777.37
2018-12-07T08:02:13.782Z,98772.61
2018-12-07T08:04:41.668Z,98775.00
2018-12-07T08:07:08.960Z,98759.08
2018-12-07T08:09:36.252Z,98757.73
2018-12-07T08:12:03.617Z,98764.89
2018-12-07T08:14:31.041Z,98751.96
2018-12-07T08:16:58.242Z,98753.55
2018-12-07T08:19:25.611Z,98761.14
2018-12-07T08:21:52.871Z,98751.93
2018-12-07T08:24:20.189Z,98757.23
2018-12-07T08:26:47.743Z,98749.30
2018-12-07T08:29:15.411Z,98743.72
2018-12-07T08:31:42.603Z,98747.47
2018-12-07T08:34:09.764Z,98745.62
2018-12-07T08:36:36.964Z,98755.98
2018-12-07T08:39:08.621Z,98744.59
2018-12-07T08:41:36.856Z,98745.09
2018-12-07T08:44:04.313Z,98739.50
2018-12-07T08:46:31.599Z,98738.19
2018-12-07T08:48:58.953Z,98736.34
2018-12-07T08:51:26.109Z,98721.80
2018-12-07T08:53:53.281Z,98722.55
2018-12-07T08:56:20.605Z,98712.83
2018-12-07T08:58:47.772Z,98725.48
2018-12-07T09:01:15.277Z,98722.27
2018-12-07T09:03:42.604Z,98718.30
2018-12-07T09:06:10.584Z,98718.05
2018-12-07T09:08:37.871Z,98707.53
2018-12-07T09:11:05.438Z,98714.08
2018-12-07T09:13:33.244Z,98705.36
2018-12-07T09:16:00.485Z,98717.25
2018-12-07T09:18:27.613Z,98712.78
2018-12-07T09:20:55.330Z,98723.41
2018-12-07T09:23:23.307Z,98705.96
2018-12-07T09:25:50.574Z,98507.84
2018-12-07T09:28:17.747Z,98698.03
2018-12-07T09:30:45.019Z,98708.31
2018-12-07T09:33:12.618Z,98692.48
2018-12-07T09:35:41.219Z,98698.31
2018-12-07T09:38:13.083Z,98709.41
2018-12-07T09:40:39.585Z,98700.72
2018-12-07T09:43:06.858Z,98701.75
2018-12-07T09:45:34.136Z,98700.14
2018-12-07T09:48:01.377Z,98687.45
2018-12-07T09:50:28.557Z,98699.61
2018-12-07T09:52:56.606Z,98681.64
2018-12-07T09:55:24.749Z,98682.20
2018-12-07T09:57:52.235Z,98668.69
2018-12-07T10:00:19.356Z,98662.30
2018-12-07T10:02:46.682Z,98653.33
2018-12-07T10:05:14.029Z,98657.27
2018-12-07T10:07:41.313Z,98662.88
2018-12-07T10:10:08.862Z,98659.11
2018-12-07T10:12:36.272Z,98653.02
2018-12-07T10:15:04.000Z,98640.52
2018-12-07T10:17:31.239Z,98646.09
2018-12-07T10:19:59.132Z,98658.80
2018-12-07T10:22:26.276Z,98628.33
2018-12-07T10:24:53.498Z,98646.09
2018-12-07T10:27:20.825Z,98626.50
2018-12-07T10:29:48.068Z,98626.81
2018-12-07T10:32:15.819Z,98618.41
2018-12-07T10:34:43.756Z,98598.79
2018-12-07T10:37:10.991Z,98450.09
2018-12-07T10:39:38.828Z,98603.58
2018-12-07T10:42:06.128Z,98580.27
2018-12-07T10:44:33.482Z,98608.04
2018-12-07T10:47:01.357Z,98581.30
2018-12-07T10:49:29.773Z,98559.91
2018-12-07T10:51:57.986Z,98572.88
2018-12-07T10:54:29.446Z,98568.84
2018-12-07T10:56:56.948Z,98569.11
2018-12-07T10:59:24.170Z,98560.95
2018-12-07T11:01:57.252Z,98554.83
2018-12-07T11:04:30.281Z,98550.92
2018-12-07T11:07:03.334Z,98526.03
2018-12-07T11:09:36.110Z,98527.92
2018-12-07T11:12:08.898Z,98524.95
2018-12-07T11:14:41.869Z,98534.30
2018-12-07T11:17:14.636Z,98512.80
2018-12-07T11:19:47.461Z,98518.97
2018-12-07T11:22:21.020Z,98505.95
2018-12-07T11:24:53.837Z,98484.86
2018-12-07T11:27:27.923Z,98493.53
2018-12-07T11:30:00.894Z,98476.34
2018-12-07T11:32:37.721Z,98471.63
2018-12-07T11:35:11.025Z,98470.88
2018-12-07T11:37:38.252Z,98466.09
2018-12-07T11:40:06.606Z,98468.78
2018-12-07T11:42:33.916Z,98462.70
2018-12-07T11:45:01.627Z,98451.34
2018-12-07T11:47:28.972Z,98438.46
2018-12-07T11:49:56.170Z,98444.63
2018-12-07T11:52:23.622Z,98431.46
2018-12-07T11:54:51.155Z,98442.24
2018-12-07T11:57:18.969Z,98444.16
2018-12-07T11:59:46.153Z,98431.94
2018-12-07T12:02:13.970Z,98420.28
2018-12-07T12:04:41.088Z,98409.38
2018-12-07T12:07:08.314Z,98419.94
2018-12-07T12:09:35.817Z,98427.86
2018-12-07T12:12:03.909Z,98391.14
2018-12-07T12:14:31.093Z,98401.91
2018-12-07T12:16:58.722Z,98386.88
2018-12-07T12:21:51.053Z,98368.39
2018-12-07T12:24:18.316Z,98358.61
2018-12-07T12:26:45.460Z,98340.92
2018-12-07T12:29:13.365Z,98341.13
2018-12-07T12:31:40.581Z,98354.08
2018-12-07T12:34:07.677Z,98341.86
2018-12-07T13:05:14.778Z,98272.66
2018-12-07T13:07:48.452Z,98269.25
2018-12-07T13:10:17.706Z,98257.98
2018-12-07T13:12:44.852Z,98244.27
2018-12-07T13:15:12.879Z,98242.94
2018-12-07T13:17:40.070Z,98244.45
2018-12-07T13:20:08.129Z,98240.17
2018-12-07T13:22:35.407Z,98236.23
2018-12-07T13:25:02.785Z,98234.70
2018-12-07T13:27:30.643Z,98217.79
2018-12-07T13:29:57.786Z,98208.45
2018-12-07T13:32:25.022Z,98181.34
2018-12-07T13:34:58.382Z,98182.11
2018-12-07T13:37:26.201Z,98186.58
2018-12-07T13:39:53.462Z,98175.89
2018-12-07T13:42:20.851Z,98174.14
2018-12-07T13:44:48.744Z,98165.50
2018-12-07T13:47:16.163Z,98164.73
2018-12-07T13:49:43.465Z,98169.38
2018-12-07T13:52:11.101Z,98171.85
2018-12-07T13:54:38.673Z,98147.64
2018-12-07T13:57:06.006Z,98157.50
2018-12-07T13:59:33.201Z,98149.28
2018-12-07T14:02:00.585Z,98140.95
2018-12-07T14:04:28.953Z,98125.62
2018-12-07T14:06:56.824Z,98104.86
2018-12-07T14:09:24.306Z,98108.80
2018-12-07T14:11:51.621Z,98110.61
2018-12-07T14:14:18.943Z,98102.68
2018-12-07T14:16:46.479Z,98082.69
2018-12-07T14:19:13.792Z,98081.73
2018-12-07T14:21:41.070Z,98090.82
2018-12-07T14:24:08.298Z,98086.85
2018-12-07T14:26:35.715Z,98089.85
2018-12-07T14:29:03.481Z,98080.10
2018-12-07T14:31:30.897Z,98076.96
2018-12-07T14:33:58.623Z,98070.47
2018-12-07T14:36:26.455Z,98059.46
2018-12-07T14:38:53.696Z,98064.22
2018-12-07T14:41:21.235Z,98064.08
2018-12-07T14:43:48.597Z,98066.56
2018-12-07T14:46:16.026Z,98053.97
2018-12-07T14:48:43.406Z,98055.14
2018-12-07T14:51:10.745Z,98030.92
2018-12-07T14:53:38.460Z,98038.28
2018-12-07T14:56:06.210Z,98045.09
2018-12-07T14:58:33.787Z,98047.19
2018-12-07T15:01:01.333Z,98046.05
2018-12-07T15:03:28.575Z,98037.06
2018-12-07T15:05:55.971Z,98024.44
2018-12-07T15:08:23.547Z,98032.39
2018-12-07T15:10:50.846Z,98037.24
2018-12-07T15:13:18.456Z,98009.80
2018-12-07T15:15:46.193Z,97998.64
2018-12-07T15:18:13.786Z,97997.31
2018-12-07T15:20:43.931Z,97990.91
2018-12-07T15:23:11.867Z,97978.20
2018-12-07T15:25:39.595Z,97968.13
2018-12-07T15:28:07.106Z,97950.69
2018-12-07T15:30:34.661Z,97955.70
2018-12-07T15:33:02.041Z,97948.88
2018-12-07T15:35:29.384Z,97938.16
2018-12-07T15:37:56.727Z,97932.77
2018-12-07T15:40:24.163Z,97944.39
2018-12-07T15:42:51.729Z,97915.86
2018-12-07T15:45:19.968Z,97913.70
2018-12-07T15:47:47.336Z,97916.27
2018-12-07T15:50:14.958Z,97911.70
2018-12-07T15:52:42.628Z,97900.86
2018-12-07T15:55:10.921Z,97893.95
2018-12-07T15:57:38.323Z,97885.31
2018-12-07T16:00:07.080Z,97867.00
2018-12-07T16:02:34.530Z,97870.62
2018-12-07T16:05:01.941Z,97886.25
2018-12-07T16:07:29.392Z,97876.70
2018-12-07T16:09:58.108Z,97859.71
2018-12-07T16:12:25.665Z,97853.75
2018-12-07T16:14:53.293Z,97832.53
2018-12-07T16:17:20.584Z,97828.61
2018-12-07T16:19:47.994Z,97824.50
2018-12-07T16:22:15.589Z,97812.13
2018-12-07T16:24:43.287Z,97813.70
2018-12-07T16:27:11.242Z,97814.95
2018-12-07T16:29:39.293Z,97799.55
2018-12-07T16:32:06.563Z,97797.55
2018-12-07T16:34:33.998Z,97798.72
2018-12-07T16:37:01.256Z,97797.45
2018-12-07T16:39:28.836Z,97807.63
2018-12-07T16:41:56.657Z,97799.94
2018-12-07T16:44:24.732Z,97780.99
2018-12-07T16:46:51.894Z,97782.20
2018-12-07T16:49:19.662Z,97778.62
2018-12-07T16:51:47.049Z,97781.86
2018-12-07T16:54:14.362Z,97779.14
2018-12-07T16:56:42.270Z,97777.90
2018-12-07T16:59:09.568Z,97771.08
2018-12-07T17:01:37.250Z,97769.70
2018-12-07T17:04:05.597Z,97779.48
2018-12-07T17:06:32.801Z,97779.25
2018-12-07T17:09:00.006Z,97778.03
2018-12-07T17:11:28.265Z,97770.52
2018-12-07T17:13:56.084Z,97772.04
2018-12-07T17:16:24.599Z,97762.30
2018-12-07T17:18:52.272Z,97762.44
2018-12-07T17:21:26.116Z,97756.48
2018-12-07T17:24:04.392Z,97752.63
2018-12-07T17:26:31.678Z,97733.66
2018-12-07T17:29:06.063Z,97742.30
2018-12-07T17:31:40.133Z,97729.33
2018-12-07T17:37:10.704Z,97719.77
2018-12-07T17:39:42.250Z,97726.06
2018-12-07T17:42:16.333Z,97720.78
2018-12-07T17:44:43.700Z,97725.95
2018-12-07T17:47:12.303Z,97726.14
2018-12-07T17:49:49.831Z,97721.66
2018-12-07T17:52:36.218Z,97717.36
2018-12-07T17:55:03.673Z,97708.20
2018-12-07T17:57:31.283Z,97707.02
2018-12-07T17:59:58.911Z,97713.44
2018-12-07T18:02:26.431Z,97711.81
2018-12-07T18:04:53.733Z,97698.73
2018-12-07T18:07:21.251Z,97698.87
2018-12-07T18:09:48.724Z,97710.19
2018-12-07T18:12:16.269Z,97678.33
2018-12-07T18:17:40.604Z,97686.74
2018-12-07T18:20:18.554Z,97690.28
2018-12-07T18:22:46.294Z,97694.77
2018-12-07T18:25:13.828Z,97691.52
2018-12-07T18:27:41.152Z,97706.27
2018-12-07T18:30:08.465Z,97696.05
2018-12-07T18:32:40.567Z,97720.11
2018-12-07T18:35:09.931Z,97724.94
2018-12-07T18:40:40.097Z,97763.29
2018-12-07T18:46:11.306Z,97765.11
2018-12-07T18:48:38.554Z,97766.16
2018-12-07T18:51:05.768Z,97748.62
2018-12-07T18:53:33.029Z,97768.66
2018-12-07T18:56:00.218Z,97777.50
2018-12-07T18:58:27.343Z,97793.34
2018-12-07T19:00:54.713Z,97825.88
2018-12-07T19:03:22.088Z,97832.84
2018-12-07T19:05:56.278Z,97837.83
2018-12-07T19:08:23.593Z,97836.05
2018-12-07T19:10:50.830Z,97859.98
2018-12-07T19:13:21.400Z,97851.13
2018-12-07T19:15:49.490Z,97859.81
2018-12-07T19:18:17.133Z,97884.91
2018-12-07T19:20:44.428Z,97879.80
2018-12-07T19:23:11.541Z,97895.91
2018-12-07T19:25:38.688Z,97895.02
2018-12-07T19:28:06.726Z,97923.36
2018-12-07T19:30:34.048Z,97909.74
2018-12-07T19:33:01.254Z,97930.33
2018-12-07T19:35:28.794Z,97947.55
2018-12-07T19:37:56.251Z,97950.19
2018-12-07T19:40:23.630Z,97963.28
2018-12-07T19:42:50.962Z,97982.65
2018-12-07T19:45:18.404Z,97975.51
2018-12-07T19:47:45.844Z,97969.53
2018-12-07T19:50:13.328Z,97966.66
2018-12-07T19:52:40.819Z,97973.46
2018-12-07T19:55:08.286Z,97977.20
2018-12-07T19:57:36.135Z,97990.90
2018-12-07T20:00:05.295Z,98005.88
2018-12-07T20:02:32.500Z,98010.14
2018-12-07T20:04:59.598Z,98012.48
2018-12-07T20:07:26.812Z,98032.83
2018-12-07T20:09:54.011Z,98032.77
2018-12-07T20:12:21.208Z,98034.63
2018-12-07T20:14:48.384Z,98027.55
2018-12-07T20:17:15.604Z,98030.95
2018-12-07T20:19:45.224Z,98010.66
2018-12-07T20:22:13.135Z,98037.59
2018-12-07T20:24:40.794Z,98038.15
2018-12-07T20:27:08.575Z,98032.34
2018-12-07T20:29:35.942Z,98062.96
2018-12-07T20:32:03.459Z,98058.52
2018-12-07T20:34:30.841Z,98076.42
2018-12-07T20:36:58.083Z,98089.89
2018-12-07T20:39:25.391Z,98075.94
2018-12-07T20:41:53.068Z,98081.47
2018-12-07T20:44:20.480Z,98085.64
2018-12-07T20:46:47.768Z,98074.30
2018-12-07T20:49:15.091Z,98089.59
2018-12-07T20:51:42.508Z,98089.08
2018-12-07T20:54:10.020Z,98096.98
2018-12-07T20:56:37.532Z,98104.38
2018-12-07T20:59:04.707Z,98120.41
2018-12-07T21:01:35.061Z,98133.65
2018-12-07T21:04:42.122Z,98123.36
2018-12-07T21:07:31.797Z,98145.52
2018-12-07T21:11:11.973Z,98153.92
2018-12-07T21:13:51.707Z,98169.27
2018-12-07T21:17:29.649Z,98174.02
2018-12-07T21:20:28.996Z,98172.19
2018-12-07T21:22:56.826Z,98172.98
2018-12-07T21:25:24.399Z,98193.49
2018-12-07T21:27:52.145Z,98216.42
2018-12-07T21:31:02.860Z,98204.55
2018-12-07T21:34:39.455Z,98209.80
2018-12-07T21:37:06.991Z,98213.76
2018-12-07T21:39:40.428Z,98214.56
2018-12-07T21:42:07.710Z,98219.30
2018-12-07T21:44:35.166Z,98235.10
2018-12-07T21:47:03.390Z,98231.39
2018-12-07T21:49:35.889Z,98235.90
2018-12-07T21:52:18.242Z,98233.55
2018-12-07T21:54:45.511Z,98234.58
2018-12-07T21:57:13.608Z,98233.55
2018-12-07T21:59:40.836Z,98235.38
2018-12-07T22:02:08.398Z,98258.55
2018-12-07T22:04:36.038Z,98273.03
2018-12-07T22:07:03.954Z,98265.95
2018-12-07T22:09:31.388Z,98283.30
2018-12-07T22:11:58.608Z,98284.11
2018-12-07T22:14:26.410Z,98297.78
2018-12-07T22:16:53.949Z,98305.93
2018-12-07T22:19:21.166Z,98305.39
2018-12-07T22:21:48.754Z,98328.23
2018-12-07T22:24:16.115Z,98324.70
2018-12-07T22:26:44.009Z,98330.23
2018-12-07T22:29:11.414Z,98314.64
2018-12-07T22:31:38.639Z,98315.04
2018-12-07T22:34:05.835Z,98313.41
2018-12-07T22:36:33.038Z,98317.88
2018-12-07T22:39:00.512Z,98314.76
2018-12-07T22:41:27.982Z,98322.36
2018-12-07T22:43:55.354Z,98326.08
2018-12-07T22:46:23.391Z,98329.80
2018-12-07T22:48:51.346Z,98329.28
2018-12-07T22:51:23.270Z,98335.84
2018-12-07T22:53:50.617Z,98328.25
2018-12-07T22:56:17.812Z,98334.84
2018-12-07T22:58:47.049Z,98344.31
2018-12-07T23:01:14.527Z,98339.06
2018-12-07T23:03:42.450Z,98336.17
2018-12-07T23:06:09.675Z,98339.08
2018-12-07T23:08:36.825Z,98346.43
2018-12-07T23:11:03.953Z,98366.91
2018-12-07T23:13:31.172Z,98382.14
2018-12-07T23:15:58.320Z,98396.76
2018-12-07T23:18:25.403Z,98388.05
2018-12-07T23:20:52.629Z,98363.58
2018-12-07T23:23:19.908Z,98374.28
2018-12-07T23:25:47.181Z,98376.05
2018-12-07T23:28:19.477Z,98390.64
2018-12-07T23:30:43.484Z,98398.75
2018-12-07T23:33:10.599Z,98401.66
2018-12-07T23:35:38.555Z,98397.95
2018-12-07T23:38:05.823Z,98401.87
2018-12-07T23:40:32.889Z,98399.24
2018-12-07T23:43:00.932Z,98392.98
2018-12-07T23:45:28.229Z,98390.64
2018-12-07T23:47:55.372Z,98396.95
2018-12-07T23:50:22.581Z,98388.56
2018-12-07T23:52:49.780Z,98382.47
2018-12-07T23:55:16.863Z,98387.17
2018-12-07T23:57:43.960Z,98405.59
